createdAt,value
2023-04-06T00:02:11.296Z,57.56
2023-04-06T00:04:37.968Z,57.82
2023-04-06T00:07:04.723Z,57.72
2023-04-06T00:09:31.329Z,57.76
2023-04-06T00:11:58.891Z,57.61
2023-04-06T00:14:25.546Z,57.90
2023-04-06T00:16:52.123Z,57.74
2023-04-06T00:19:18.806Z,57.86
2023-04-06T00:21:45.695Z,57.96
2023-04-06T00:24:12.421Z,57.96
2023-04-06T00:26:39.181Z,57.99
2023-04-06T00:29:06.030Z,57.90
2023-04-06T00:31:32.718Z,58.03
2023-04-06T00:33:59.621Z,58.01
2023-04-06T00:36:26.791Z,58.23
2023-04-06T00:38:53.490Z,58.25
2023-04-06T00:41:21.679Z,58.22
2023-04-06T00:43:48.407Z,58.29
2023-04-06T00:46:15.124Z,58.30
2023-04-06T00:48:41.913Z,58.21
2023-04-06T00:51:08.570Z,58.61
2023-04-06T00:53:35.255Z,58.40
2023-04-06T00:56:02.885Z,58.57
2023-04-06T00:58:38.941Z,58.24
2023-04-06T01:01:07.935Z,58.50
2023-04-06T01:03:35.918Z,58.51
2023-04-06T01:06:02.793Z,58.46
2023-04-06T01:08:36.166Z,58.61
2023-04-06T01:11:28.853Z,58.67
2023-04-06T01:13:56.398Z,58.59
2023-04-06T01:16:27.304Z,58.58
2023-04-06T01:19:10.212Z,58.70
2023-04-06T01:21:37.980Z,58.77
2023-04-06T01:24:30.489Z,58.80
2023-04-06T01:27:13.246Z,58.69
2023-04-06T01:29:54.198Z,58.90
2023-04-06T01:32:53.370Z,58.97
2023-04-06T01:35:37.441Z,59.02
2023-04-06T01:38:16.287Z,59.01
2023-04-06T01:40:44.151Z,59.32
2023-04-06T01:43:11.158Z,59.12
2023-04-06T01:45:58.085Z,59.25
2023-04-06T01:48:30.096Z,59.27
2023-04-06T01:50:56.722Z,59.34
2023-04-06T01:53:29.426Z,59.26
2023-04-06T01:56:01.761Z,59.39
2023-04-06T01:58:34.649Z,59.50
2023-04-06T02:01:01.515Z,59.37
2023-04-06T02:03:34.214Z,59.61
2023-04-06T02:06:07.129Z,59.48
2023-04-06T02:08:38.267Z,59.51
2023-04-06T02:11:05.044Z,59.69
2023-04-06T02:13:38.832Z,59.63
2023-04-06T02:16:05.935Z,59.64
2023-04-06T02:18:32.738Z,59.62
2023-04-06T02:20:59.475Z,59.54
2023-04-06T02:23:26.535Z,59.63
2023-04-06T02:25:53.433Z,59.47
2023-04-06T02:28:19.992Z,59.52
2023-04-06T02:30:47.707Z,59.86
2023-04-06T02:33:14.540Z,59.68
2023-04-06T02:35:45.856Z,59.65
2023-04-06T02:38:12.800Z,59.88
2023-04-06T02:40:39.489Z,59.93
2023-04-06T02:43:17.988Z,59.86
2023-04-06T02:45:45.932Z,59.95
2023-04-06T02:48:13.016Z,59.91
2023-04-06T02:50:39.619Z,59.83
2023-04-06T02:53:07.918Z,60.03
2023-04-06T02:55:36.479Z,60.00
2023-04-06T02:58:03.681Z,59.96
2023-04-06T03:00:38.308Z,60.22
2023-04-06T03:03:05.099Z,59.75
2023-04-06T03:05:31.777Z,60.04
2023-04-06T03:07:58.478Z,60.09
2023-04-06T03:10:37.865Z,60.01
2023-04-06T03:13:04.865Z,59.92
2023-04-06T03:16:00.645Z,59.96
2023-04-06T03:18:27.886Z,60.07
2023-04-06T03:20:56.637Z,59.90
2023-04-06T03:23:29.250Z,60.22
2023-04-06T03:25:59.525Z,59.99
2023-04-06T03:28:26.334Z,60.28
2023-04-06T03:30:58.838Z,60.08
2023-04-06T03:33:51.757Z,60.23
2023-04-06T03:36:27.241Z,60.23
2023-04-06T03:38:56.051Z,59.98
2023-04-06T03:41:22.929Z,60.16
2023-04-06T03:43:57.061Z,60.02
2023-04-06T03:46:23.689Z,60.16
2023-04-06T03:48:53.401Z,60.21
2023-04-06T03:51:22.359Z,60.18
2023-04-06T03:53:49.079Z,60.22
2023-04-06T03:56:15.728Z,60.02
2023-04-06T03:58:42.283Z,60.24
2023-04-06T04:01:08.770Z,60.33
2023-04-06T04:03:35.374Z,60.41
2023-04-06T04:06:02.146Z,60.18
2023-04-06T04:08:28.968Z,60.28
2023-04-06T04:10:55.699Z,60.08
2023-04-06T04:13:23.003Z,60.41
2023-04-06T04:15:51.799Z,60.47
2023-04-06T04:18:18.417Z,60.37
2023-04-06T04:20:44.966Z,60.45
2023-04-06T04:23:13.217Z,60.33
2023-04-06T04:25:39.777Z,60.50
2023-04-06T04:28:06.934Z,60.30
2023-04-06T04:30:33.486Z,60.34
2023-04-06T04:33:00.113Z,60.38
2023-04-06T04:35:27.899Z,60.32
2023-04-06T04:37:54.498Z,60.47
2023-04-06T04:40:21.383Z,60.41
2023-04-06T04:42:53.068Z,60.58
2023-04-06T04:45:28.846Z,60.49
2023-04-06T04:47:56.818Z,60.52
2023-04-06T04:50:26.896Z,60.53
2023-04-06T04:52:57.262Z,60.49
2023-04-06T04:55:26.290Z,60.35
2023-04-06T04:57:55.876Z,60.51
2023-04-06T05:00:31.641Z,60.58
2023-04-06T05:03:00.298Z,60.61
2023-04-06T05:05:30.054Z,60.37
2023-04-06T05:07:57.640Z,60.54
2023-04-06T05:10:38.345Z,60.46
2023-04-06T05:13:05.538Z,60.51
2023-04-06T05:15:32.408Z,60.56
2023-04-06T05:18:05.992Z,60.43
2023-04-06T05:20:35.585Z,60.46
2023-04-06T05:23:02.572Z,60.45
2023-04-06T05:25:30.738Z,60.66
2023-04-06T05:28:03.318Z,60.44
2023-04-06T05:30:33.441Z,60.48
2023-04-06T05:33:00.584Z,60.47
2023-04-06T05:35:34.381Z,60.63
2023-04-06T05:38:11.290Z,60.67
2023-04-06T05:40:39.379Z,60.59
2023-04-06T05:43:09.092Z,60.42
2023-04-06T05:45:37.601Z,60.38
2023-04-06T05:48:07.060Z,60.59
2023-04-06T05:50:33.854Z,60.40
2023-04-06T05:53:01.283Z,60.35
2023-04-06T05:55:33.888Z,60.34
2023-04-06T05:58:14.103Z,60.31
2023-04-06T06:00:43.504Z,60.53
2023-04-06T06:03:11.484Z,60.35
2023-04-06T06:05:40.636Z,60.60
2023-04-06T06:08:12.160Z,60.64
2023-04-06T06:10:39.283Z,60.68
2023-04-06T06:13:07.422Z,60.44
2023-04-06T06:15:34.245Z,60.60
2023-04-06T06:18:02.743Z,60.43
2023-04-06T06:20:30.636Z,60.25
2023-04-06T06:23:00.912Z,60.46
2023-04-06T06:25:27.623Z,60.27
2023-04-06T06:27:54.346Z,60.20
2023-04-06T06:30:23.009Z,60.28
2023-04-06T06:32:51.126Z,60.09
2023-04-06T06:35:18.065Z,60.28
2023-04-06T06:37:44.844Z,60.09
2023-04-06T06:40:16.991Z,60.45
2023-04-06T06:42:44.650Z,60.23
2023-04-06T06:45:21.339Z,59.90
2023-04-06T06:47:48.476Z,60.04
2023-04-06T06:50:15.250Z,59.88
2023-04-06T06:52:43.062Z,59.84
2023-04-06T06:55:10.609Z,59.97
2023-04-06T06:57:37.860Z,59.88
2023-04-06T07:00:06.507Z,59.85
2023-04-06T07:02:34.887Z,60.10
2023-04-06T07:05:10.158Z,59.67
2023-04-06T07:07:43.340Z,59.78
2023-04-06T07:10:10.927Z,59.95
2023-04-06T07:12:38.677Z,59.64
2023-04-06T07:15:05.977Z,59.51
2023-04-06T07:17:33.622Z,59.41
2023-04-06T07:20:00.744Z,59.03
2023-04-06T07:22:27.490Z,58.37
2023-04-06T07:24:54.262Z,57.97
2023-04-06T07:27:20.926Z,57.89
2023-04-06T07:29:47.488Z,57.57
2023-04-06T07:32:14.258Z,57.69
2023-04-06T07:34:41.073Z,57.45
2023-04-06T07:37:07.907Z,57.22
2023-04-06T07:39:35.688Z,56.93
2023-04-06T07:42:02.531Z,56.35
2023-04-06T07:44:29.545Z,55.94
2023-04-06T07:46:57.327Z,55.91
2023-04-06T07:49:24.090Z,55.62
2023-04-06T07:51:51.111Z,55.38
2023-04-06T07:54:17.798Z,54.95
2023-04-06T07:56:45.270Z,55.04
2023-04-06T07:59:12.739Z,54.99
2023-04-06T08:01:39.413Z,54.64
2023-04-06T08:04:06.386Z,54.51
2023-04-06T08:06:33.177Z,54.36
2023-04-06T08:08:59.930Z,54.26
2023-04-06T08:11:27.771Z,54.04
2023-04-06T08:13:54.705Z,54.10
2023-04-06T08:16:21.456Z,54.05
2023-04-06T08:18:48.168Z,53.99
2023-04-06T08:21:14.743Z,53.94
2023-04-06T08:23:41.345Z,53.87
2023-04-06T08:26:07.918Z,53.96
2023-04-06T08:28:35.594Z,53.84
2023-04-06T08:31:08.229Z,53.68
2023-04-06T08:33:40.010Z,54.36
2023-04-06T08:36:13.846Z,53.90
2023-04-06T08:38:41.442Z,53.67
2023-04-06T08:41:12.003Z,53.54
2023-04-06T08:43:48.512Z,53.49
2023-04-06T08:46:15.616Z,53.52
2023-04-06T08:48:43.427Z,53.35
2023-04-06T08:51:10.880Z,53.19
2023-04-06T08:53:37.764Z,53.34
2023-04-06T08:56:05.017Z,53.45
2023-04-06T08:58:39.933Z,53.36
2023-04-06T09:01:11.519Z,53.43
2023-04-06T09:03:43.021Z,53.30
2023-04-06T09:06:10.441Z,53.70
2023-04-06T09:08:39.479Z,53.53
2023-04-06T09:11:06.017Z,53.30
2023-04-06T09:13:32.737Z,53.35
2023-04-06T09:16:00.164Z,53.29
2023-04-06T09:18:30.840Z,53.25
2023-04-06T09:21:07.035Z,53.23
2023-04-06T09:23:33.783Z,53.34
2023-04-06T09:26:09.200Z,53.41
2023-04-06T09:28:46.280Z,53.70
2023-04-06T09:31:14.118Z,53.74
2023-04-06T09:33:41.994Z,53.51
2023-04-06T09:36:10.693Z,53.59
2023-04-06T09:38:37.984Z,53.61
2023-04-06T09:41:04.809Z,53.59
2023-04-06T09:43:31.554Z,53.63
2023-04-06T09:45:58.767Z,53.83
2023-04-06T09:48:27.533Z,53.62
2023-04-06T09:51:00.610Z,53.79
2023-04-06T09:53:28.053Z,53.79
2023-04-06T09:55:58.563Z,53.65
2023-04-06T09:58:27.591Z,53.53
2023-04-06T10:01:04.069Z,53.68
2023-04-06T10:03:46.350Z,53.91
2023-04-06T10:06:14.369Z,53.66
2023-04-06T10:08:42.347Z,53.56
2023-04-06T10:11:10.370Z,53.83
2023-04-06T10:13:36.941Z,53.77
2023-04-06T10:16:03.890Z,53.64
2023-04-06T10:18:30.766Z,53.69
2023-04-06T10:21:01.702Z,53.77
2023-04-06T10:23:41.241Z,53.75
2023-04-06T10:26:13.292Z,53.88
2023-04-06T10:28:42.137Z,53.61
2023-04-06T10:31:08.698Z,53.62
2023-04-06T10:33:35.379Z,53.54
2023-04-06T10:36:11.386Z,53.40
2023-04-06T10:38:42.265Z,53.40
2023-04-06T10:41:09.996Z,53.53
2023-04-06T10:43:37.641Z,53.23
2023-04-06T10:46:05.168Z,53.39
2023-04-06T10:48:49.063Z,53.40
2023-04-06T10:51:16.276Z,53.37
2023-04-06T10:53:47.933Z,53.33
2023-04-06T10:56:15.833Z,53.37
2023-04-06T10:58:57.038Z,53.45
2023-04-06T11:01:24.804Z,53.32
2023-04-06T11:03:52.579Z,53.10
2023-04-06T11:06:19.837Z,53.24
2023-04-06T11:08:46.460Z,53.18
2023-04-06T11:11:17.168Z,53.15
2023-04-06T11:13:47.984Z,53.12
2023-04-06T11:16:18.719Z,53.10
2023-04-06T11:18:49.607Z,52.99
2023-04-06T11:21:16.352Z,52.92
2023-04-06T11:23:43.039Z,52.83
2023-04-06T11:26:13.756Z,53.02
2023-04-06T11:28:46.222Z,52.78
2023-04-06T11:31:12.861Z,52.51
2023-04-06T11:33:39.808Z,52.50
2023-04-06T11:36:07.279Z,52.53
2023-04-06T11:38:34.208Z,52.47
2023-04-06T11:41:02.332Z,52.28
2023-04-06T11:43:32.163Z,52.28
2023-04-06T11:46:03.332Z,52.59
2023-04-06T11:48:30.707Z,52.48
2023-04-06T11:51:02.157Z,52.54
2023-04-06T11:53:29.872Z,52.63
2023-04-06T11:55:56.853Z,52.59
2023-04-06T11:58:23.896Z,52.67
2023-04-06T12:00:50.490Z,52.66
2023-04-06T12:03:17.203Z,52.68
2023-04-06T12:05:44.934Z,52.65
2023-04-06T12:08:11.685Z,52.68
2023-04-06T12:10:38.339Z,52.51
2023-04-06T12:13:05.569Z,52.63
2023-04-06T12:15:32.427Z,52.60
2023-04-06T12:17:59.449Z,52.72
2023-04-06T12:20:27.636Z,52.78
2023-04-06T12:22:54.668Z,52.69
2023-04-06T12:25:21.536Z,52.61
2023-04-06T12:27:48.409Z,52.81
2023-04-06T12:30:15.234Z,52.76
2023-04-06T12:32:41.958Z,52.89
2023-04-06T12:35:09.973Z,52.90
2023-04-06T12:37:37.835Z,52.81
2023-04-06T12:40:05.223Z,52.93
2023-04-06T12:42:31.944Z,52.90
2023-04-06T12:44:58.492Z,53.02
2023-04-06T12:47:27.365Z,52.81
2023-04-06T12:49:55.025Z,52.77
2023-04-06T12:52:21.665Z,52.78
2023-04-06T12:54:50.136Z,52.79
2023-04-06T12:57:18.045Z,52.97
2023-04-06T12:59:45.745Z,52.98
2023-04-06T13:02:12.715Z,52.86
2023-04-06T13:04:39.509Z,52.57
2023-04-06T13:07:06.452Z,52.58
2023-04-06T13:09:33.111Z,52.72
2023-04-06T13:11:59.876Z,52.83
2023-04-06T13:14:26.668Z,52.83
2023-04-06T13:16:53.382Z,52.81
2023-04-06T13:19:20.028Z,52.75
2023-04-06T13:21:46.771Z,52.68
2023-04-06T13:24:15.572Z,52.91
2023-04-06T13:26:43.233Z,53.09
2023-04-06T13:29:09.958Z,52.90
2023-04-06T13:31:36.658Z,52.58
2023-04-06T13:34:03.615Z,52.47
2023-04-06T13:36:30.932Z,52.37
2023-04-06T13:38:57.654Z,52.32
2023-04-06T13:41:26.208Z,52.13
2023-04-06T13:43:53.106Z,52.32
2023-04-06T13:46:19.864Z,52.29
2023-04-06T13:48:47.972Z,52.62
2023-04-06T13:51:15.544Z,52.78
2023-04-06T13:53:42.288Z,52.75
2023-04-06T13:56:09.372Z,52.68
2023-04-06T13:58:37.238Z,52.66
2023-04-06T14:01:05.286Z,52.45
2023-04-06T14:03:32.618Z,52.24
2023-04-06T14:06:04.841Z,52.18
2023-04-06T14:08:36.014Z,52.12
2023-04-06T14:11:02.832Z,52.08
2023-04-06T14:13:29.525Z,51.99
2023-04-06T14:15:58.830Z,52.17
2023-04-06T14:18:25.768Z,52.10
2023-04-06T14:20:56.477Z,52.09
2023-04-06T14:23:23.392Z,51.95
2023-04-06T14:25:49.939Z,51.96
2023-04-06T14:28:17.293Z,52.01
2023-04-06T14:30:44.308Z,51.75
2023-04-06T14:33:10.840Z,51.98
2023-04-06T14:35:39.341Z,52.11
2023-04-06T14:38:06.385Z,52.08
2023-04-06T14:40:35.399Z,52.08
2023-04-06T14:43:01.888Z,52.05
2023-04-06T14:45:28.595Z,51.81
2023-04-06T14:47:55.355Z,52.37
2023-04-06T14:50:22.074Z,52.46
2023-04-06T14:52:48.748Z,52.44
2023-04-06T14:55:15.476Z,52.31
2023-04-06T14:57:41.970Z,52.30
2023-04-06T15:00:10.518Z,52.26
2023-04-06T15:02:38.060Z,52.38
2023-04-06T15:05:06.468Z,52.47
2023-04-06T15:07:33.233Z,52.62
2023-04-06T15:09:59.851Z,52.71
2023-04-06T15:12:26.698Z,52.61
2023-04-06T15:14:53.448Z,52.71
2023-04-06T15:17:20.173Z,52.57
2023-04-06T15:19:46.812Z,52.60
2023-04-06T15:22:13.516Z,52.35
2023-04-06T15:24:39.994Z,52.59
2023-04-06T15:27:07.598Z,52.64
2023-04-06T15:29:34.207Z,52.91
2023-04-06T15:32:00.802Z,52.84
2023-04-06T15:34:31.176Z,52.77
2023-04-06T15:37:02.372Z,52.55
2023-04-06T15:39:29.414Z,52.81
2023-04-06T15:41:57.371Z,52.64
2023-04-06T15:44:24.062Z,52.88
2023-04-06T15:46:51.937Z,52.71
2023-04-06T15:49:18.653Z,52.85
2023-04-06T15:51:45.346Z,52.91
2023-04-06T15:54:11.950Z,52.81
2023-04-06T15:56:38.473Z,52.72
2023-04-06T15:59:05.016Z,52.55
2023-04-06T16:01:31.820Z,52.88
2023-04-06T16:03:58.499Z,52.83
2023-04-06T16:06:27.404Z,52.66
2023-04-06T16:08:54.078Z,52.47
2023-04-06T16:11:21.400Z,52.72
2023-04-06T16:13:54.612Z,52.79
2023-04-06T16:16:22.413Z,52.58
2023-04-06T16:18:49.024Z,52.76
2023-04-06T16:21:17.225Z,52.54
2023-04-06T16:23:45.341Z,52.60
2023-04-06T16:26:13.155Z,52.81
2023-04-06T16:28:39.732Z,52.55
2023-04-06T16:31:06.808Z,52.55
2023-04-06T16:33:33.301Z,52.29
2023-04-06T16:35:59.997Z,52.50
2023-04-06T16:38:31.599Z,52.48
2023-04-06T16:41:04.330Z,52.47
2023-04-06T16:43:32.188Z,52.44
2023-04-06T16:45:58.915Z,52.35
2023-04-06T16:48:25.841Z,52.51
2023-04-06T16:50:52.524Z,52.22
2023-04-06T16:53:19.129Z,52.15
2023-04-06T16:55:46.028Z,52.17
2023-04-06T16:58:12.485Z,52.03
2023-04-06T17:00:39.970Z,52.14
2023-04-06T17:03:06.686Z,52.05
2023-04-06T17:05:34.834Z,52.02
2023-04-06T17:08:01.602Z,52.14
2023-04-06T17:10:33.297Z,51.93
2023-04-06T17:13:00.986Z,52.04
2023-04-06T17:15:29.621Z,51.81
2023-04-06T17:17:56.644Z,52.28
2023-04-06T17:20:23.380Z,52.22
2023-04-06T17:22:50.262Z,51.97
2023-04-06T17:25:17.129Z,52.03
2023-04-06T17:27:44.015Z,52.06
2023-04-06T17:30:11.719Z,52.03
2023-04-06T17:32:38.619Z,52.12
2023-04-06T17:35:05.709Z,52.29
2023-04-06T17:37:32.348Z,51.95
2023-04-06T17:39:59.203Z,52.33
2023-04-06T17:42:25.858Z,52.25
2023-04-06T17:44:53.215Z,52.33
2023-04-06T17:47:20.332Z,52.49
2023-04-06T17:49:47.067Z,52.62
2023-04-06T17:52:13.614Z,52.40
2023-04-06T17:54:40.434Z,52.34
2023-04-06T17:57:07.842Z,52.06
2023-04-06T17:59:34.856Z,52.31
2023-04-06T18:02:03.255Z,51.93
2023-04-06T18:04:30.169Z,51.83
2023-04-06T18:06:56.912Z,51.84
2023-04-06T18:09:23.508Z,51.78
2023-04-06T18:11:50.096Z,52.06
2023-04-06T18:14:16.626Z,51.83
2023-04-06T18:16:43.175Z,51.93
2023-04-06T18:19:09.781Z,51.78
2023-04-06T18:21:36.951Z,51.92
2023-04-06T18:24:05.391Z,51.95
2023-04-06T18:26:33.634Z,52.04
2023-04-06T18:29:00.587Z,52.04
2023-04-06T18:31:27.401Z,52.12
2023-04-06T18:33:54.781Z,51.94
2023-04-06T18:36:21.534Z,52.04
2023-04-06T18:38:48.491Z,52.25
2023-04-06T18:41:16.374Z,52.35
2023-04-06T18:43:42.939Z,52.25
2023-04-06T18:46:13.563Z,52.28
2023-04-06T18:48:40.859Z,52.22
2023-04-06T18:51:07.425Z,52.30
2023-04-06T18:53:33.933Z,52.08
2023-04-06T18:56:00.652Z,52.12
2023-04-06T18:58:27.654Z,52.01
2023-04-06T19:00:54.722Z,52.00
2023-04-06T19:03:22.110Z,52.01
2023-04-06T19:05:49.428Z,52.07
2023-04-06T19:08:16.075Z,52.24
2023-04-06T19:10:42.720Z,52.11
2023-04-06T19:13:09.651Z,52.43
2023-04-06T19:15:36.337Z,52.19
2023-04-06T19:18:03.419Z,52.07
2023-04-06T19:20:33.935Z,52.37
2023-04-06T19:23:00.764Z,52.12
2023-04-06T19:25:27.596Z,51.95
2023-04-06T19:27:54.500Z,52.16
2023-04-06T19:30:21.343Z,52.11
2023-04-06T19:32:48.002Z,52.16
2023-04-06T19:35:14.541Z,52.23
2023-04-06T19:37:43.275Z,51.94
2023-04-06T19:40:12.001Z,52.35
2023-04-06T19:42:38.905Z,52.17
2023-04-06T19:45:06.549Z,52.20
2023-04-06T19:47:34.900Z,52.08
2023-04-06T19:50:02.030Z,52.25
2023-04-06T19:52:29.544Z,52.39
2023-04-06T19:54:56.781Z,52.46
2023-04-06T19:57:23.485Z,52.63
2023-04-06T19:59:50.167Z,52.48
2023-04-06T20:02:17.034Z,52.83
2023-04-06T20:04:43.617Z,52.83
2023-04-06T20:07:10.244Z,52.85
2023-04-06T20:09:36.840Z,53.20
2023-04-06T20:12:03.512Z,53.49
2023-04-06T20:14:31.087Z,53.59
2023-04-06T20:17:01.574Z,53.59
2023-04-06T20:19:28.163Z,53.70
2023-04-06T20:21:54.804Z,53.74
2023-04-06T20:24:21.732Z,53.79
2023-04-06T20:26:48.866Z,53.73
2023-04-06T20:29:15.465Z,53.68
2023-04-06T20:31:42.005Z,53.86
2023-04-06T20:34:08.663Z,54.17
2023-04-06T20:36:35.833Z,54.43
2023-04-06T20:39:02.554Z,54.76
2023-04-06T20:41:29.348Z,54.62
2023-04-06T20:43:55.947Z,55.05
2023-04-06T20:46:22.615Z,54.92
2023-04-06T20:48:49.109Z,54.98
2023-04-06T20:51:23.273Z,55.34
2023-04-06T20:53:49.940Z,55.46
2023-04-06T20:56:16.741Z,55.49
2023-04-06T20:58:43.468Z,55.63
2023-04-06T21:01:17.609Z,55.56
2023-04-06T21:03:44.598Z,55.67
2023-04-06T21:06:11.444Z,55.73
2023-04-06T21:08:38.255Z,55.95
2023-04-06T21:11:06.257Z,55.91
2023-04-06T21:13:32.954Z,56.20
2023-04-06T21:15:59.730Z,56.19
2023-04-06T21:18:26.616Z,56.20
2023-04-06T21:20:53.436Z,56.30
2023-04-06T21:23:20.172Z,56.43
2023-04-06T21:25:46.736Z,56.42
2023-04-06T21:28:13.264Z,56.53
2023-04-06T21:30:39.918Z,56.65
2023-04-06T21:33:06.942Z,56.51
2023-04-06T21:35:33.703Z,56.62
2023-04-06T21:38:00.348Z,56.65
2023-04-06T21:40:27.158Z,56.75
2023-04-06T21:42:53.830Z,56.84
2023-04-06T21:45:20.415Z,57.00
2023-04-06T21:47:46.972Z,57.04
2023-04-06T21:50:13.739Z,57.16
2023-04-06T21:52:40.473Z,57.20
2023-04-06T21:55:07.324Z,57.37
2023-04-06T21:57:33.997Z,57.41
2023-04-06T22:00:00.844Z,57.36
2023-04-06T22:02:29.009Z,57.39
2023-04-06T22:04:56.096Z,57.38
2023-04-06T22:07:22.691Z,57.31
2023-04-06T22:09:52.771Z,57.29
2023-04-06T22:12:20.559Z,57.43
2023-04-06T22:14:47.270Z,57.47
2023-04-06T22:17:13.918Z,57.60
2023-04-06T22:19:40.886Z,57.72
2023-04-06T22:22:07.554Z,57.67
2023-04-06T22:24:34.170Z,57.91
2023-04-06T22:27:00.723Z,57.97
2023-04-06T22:29:27.255Z,57.88
2023-04-06T22:31:53.897Z,57.88
2023-04-06T22:34:21.876Z,57.97
2023-04-06T22:36:48.533Z,58.10
2023-04-06T22:39:15.187Z,57.97
2023-04-06T22:41:41.844Z,57.99
2023-04-06T22:44:08.469Z,57.99
2023-04-06T22:46:35.278Z,58.09
2023-04-06T22:49:03.820Z,58.10
2023-04-06T22:51:32.018Z,58.17
2023-04-06T22:53:58.515Z,58.15
2023-04-06T22:56:25.695Z,58.13
2023-04-06T22:58:52.482Z,58.17
2023-04-06T23:01:19.168Z,58.42
2023-04-06T23:03:45.917Z,58.41
2023-04-06T23:06:12.513Z,58.46
2023-04-06T23:08:39.171Z,58.50
2023-04-06T23:11:05.824Z,58.45
2023-04-06T23:13:32.352Z,58.53
2023-04-06T23:15:58.998Z,58.63
2023-04-06T23:18:25.735Z,58.56
2023-04-06T23:20:52.281Z,58.57
2023-04-06T23:23:18.849Z,58.62
2023-04-06T23:25:45.535Z,58.75
2023-04-06T23:28:12.197Z,58.73
2023-04-06T23:30:38.860Z,58.83
2023-04-06T23:33:05.719Z,58.82
2023-04-06T23:35:32.298Z,58.87
2023-04-06T23:37:59.519Z,58.75
2023-04-06T23:40:26.390Z,58.89
2023-04-06T23:42:52.848Z,59.03
2023-04-06T23:45:19.436Z,59.05
2023-04-06T23:47:46.069Z,59.20
2023-04-06T23:50:12.698Z,59.07
2023-04-06T23:52:39.227Z,59.00
2023-04-06T23:55:06.054Z,59.03
2023-04-06T23:57:32.700Z,59.15
